• Join FlightAware (Why Join?)
  • Login
  • US Flag 
11:51AM EDT


 

Airport Tracker/Info


-or-


 

Live Flight TrackerFlight Track Log ✈ UAL139 ✈ 24-Aug-2013 ✈ KDEN - RJAA / NRT

Flight Track Log - Related Links

Times and Time Zones

All times are in EDT time to prevent confusion due to time zone crossing. See the UAL139 flight status page for this flight to view local times or setup timezone preferences in your user account.

Time Position Orientation Groundspeed Altitude Reporting Facility
EDT Latitude Longitude Course Direction KTS MPH feet Rate Location/Type
02:39PM 39.8710 -104.6960 303° West 163 188 5,200  Level FlightAware
02:39PM 39.8809 -104.6960 360° North 195 224 5,100 660 Descending FlightAware ADS-B
02:39PM 39.8962 -104.6960 360° North 215 247 5,500 1,740 Climbing FlightAware ADS-B
02:39PM 39.9077 -104.6960 360° North 219 252 5,900 2,400 Climbing FlightAware ADS-B
02:39PM 39.9117 -104.6950 11° North 221 254 6,100 2,220 Climbing FlightAware ADS-B
02:40PM 39.9156 -104.6960 349° North 223 257 6,200 1,680 Climbing FlightAware ADS-B
02:40PM 39.9189 -104.6960 360° North 226 260 6,300 960 Climbing FlightAware ADS-B
02:40PM 39.9223 -104.6970 347° North 229 264 6,300 840 Level FlightAware ADS-B
02:40PM 39.9265 -104.6980 350° North 233 268 6,400 900 Climbing FlightAware ADS-B
02:40PM 39.9431 -104.7030 347° North 249 287 6,600 960 Climbing FlightAware ADS-B
02:40PM 39.9544 -104.7060 348° North 259 298 6,800 1,140 Climbing FlightAware ADS-B
02:40PM 39.9736 -104.7120 347° North 276 318 7,100 1,500 Climbing FlightAware ADS-B
02:41PM 39.9929 -104.7170 349° North 283 326 7,600 2,160 Climbing FlightAware ADS-B
02:41PM 40.0118 -104.7220 349° North 288 331 8,200 2,400 Climbing FlightAware ADS-B
02:41PM 40.0317 -104.7280 347° North 292 336 8,800 2,400 Climbing FlightAware ADS-B
02:41PM 40.0415 -104.7310 347° North 293 337 9,100 2,100 Climbing FlightAware ADS-B
02:41PM 40.0580 -104.7370 344° North 296 341 9,500 1,620 Climbing FlightAware ADS-B
02:42PM 40.0992 -104.7560 341° North 321 369 10,300 1,200 Climbing FlightAware ADS-B
02:42PM 40.1450 -104.7780 340° North 353 406 10,800 1,440 Climbing FlightAware ADS-B
02:43PM 40.1929 -104.8000 341° North 367 422 11,800 2,100 Climbing FlightAware ADS-B
02:43PM 40.2418 -104.8230 340° North 375 432 12,900 1,980 Climbing FlightAware ADS-B
02:44PM 40.2989 -104.8500 340° North 381 438 14,000 1,800 Climbing FlightAware ADS-B
02:45PM 40.3522 -104.8740 341° North 401 461 14,900 1,860 Climbing FlightAware ADS-B
02:45PM 40.4062 -104.9000 340° North 412 474 15,900 1,980 Climbing FlightAware ADS-B
02:46PM 40.4610 -104.9250 341° North 418 481 16,900 2,040 Climbing FlightAware ADS-B
02:46PM 40.5174 -104.9520 340° North 422 486 18,000 2,040 Climbing FlightAware ADS-B
02:47PM 40.5732 -104.9780 341° North 426 490 19,000 2,100 Climbing FlightAware ADS-B
02:47PM 40.6362 -105.0070 341° North 424 488 20,300 2,100 Climbing FlightAware ADS-B
02:48PM 40.7080 -105.0410 340° North 427 491 21,600 1,860 Climbing FlightAware
02:48PM 40.7442 -105.0600 338° Northwest 426 490 22,100 1,680 Climbing FlightAware ADS-B
02:48PM 40.7662 -105.0750 333° Northwest 428 493 22,500 1,800 Climbing FlightAware ADS-B
02:49PM 40.7871 -105.0940 325° Northwest 425 489 22,900 1,200 Climbing FlightAware ADS-B
02:49PM 40.8329 -105.1450 320° Northwest 434 499 23,400 1,020 Climbing FlightAware ADS-B
02:50PM 40.8950 -105.2150 320° Northwest 448 516 24,100 1,200 Climbing FlightAware
02:50PM 40.9420 -105.2660 321° Northwest 446 513 24,800 1,380 Climbing FlightAware ADS-B
02:51PM 41.0070 -105.3370 321° Northwest 460 529 25,700 1,260 Climbing FlightAware
02:52PM 41.0680 -105.4040 320° Northwest 466 536 26,500 1,080 Climbing FlightAware
02:52PM 41.1390 -105.4830 320° Northwest 474 545 27,200 1,020 Climbing FlightAware
02:53PM 41.1930 -105.5430 320° Northwest 482 555 27,800 1,140 Climbing FlightAware
02:53PM 41.2490 -105.6060 320° Northwest 485 558 28,500 1,080 Climbing FlightAware
02:54PM 41.3160 -105.6810 320° Northwest 491 565 29,100 1,080 Climbing FlightAware
02:54PM 41.3710 -105.7420 320° Northwest 493 567 29,800 1,560 Climbing FlightAware
02:55PM 41.4330 -105.8120 320° Northwest 486 559 30,900 1,620 Climbing FlightAware
02:56PM 41.4970 -105.8840 320° Northwest 483 556 31,800 1,260 Climbing FlightAware
02:56PM 41.5560 -105.9500 320° Northwest 487 560 32,400 1,200 Climbing FlightAware
02:57PM 41.6180 -106.0200 320° Northwest 484 557 33,200 1,320 Climbing FlightAware
02:57PM 41.6790 -106.0900 319° Northwest 483 556 34,000 1,080 Climbing FlightAware
02:58PM 41.7430 -106.1620 320° Northwest 484 557 34,600 720 Climbing FlightAware
02:59PM 41.8110 -106.2400 319° Northwest 488 562 35,000 360 Climbing FlightAware
03:00PM 41.8880 -106.3290 319° Northwest 491 565 35,200 120 Climbing FlightAware
03:00PM 41.9370 -106.3870 319° Northwest 491 565 35,200  Level FlightAware
03:01PM 41.9900 -106.4480 319° Northwest 491 565 35,200  Level FlightAware
03:01PM 42.0420 -106.5100 318° Northwest 491 565 35,200  Level FlightAware
03:02PM 42.0950 -106.5710 320° Northwest 491 565 35,200  Level FlightAware
03:03PM 42.1470 -106.6330 319° Northwest 491 565 35,200  Level FlightAware
03:03PM 42.2000 -106.6940 320° Northwest 491 565 35,200  Level FlightAware
03:04PM 42.2520 -106.7560 319° Northwest 491 565 35,200  Level FlightAware
03:04PM 42.3060 -106.8190 319° Northwest 491 565 35,200  Level FlightAware
03:05PM 42.3580 -106.8810 319° Northwest 491 565 35,200  Level FlightAware
03:06PM 42.4110 -106.9420 320° Northwest 491 565 35,200  Level FlightAware
03:06PM 42.4630 -107.0040 319° Northwest 491 565 35,200  Level FlightAware
03:07PM 42.5160 -107.0660 319° Northwest 491 565 35,200  Level FlightAware
03:07PM 42.5680 -107.1280 319° Northwest 491 565 35,200  Level FlightAware
03:08PM 42.6210 -107.1900 319° Northwest 491 565 35,200  Level FlightAware
03:09PM 42.6730 -107.2520 319° Northwest 491 565 35,200 2,460 Level FlightAware
03:09PM 42.8839 -107.4947 319° Northwest 500 575 38,000 1,800 Climbing Denver Center
03:10PM 42.9831 -107.6139 319° Northwest 499 574 38,000  Level Denver Center
03:11PM 43.1003 -107.7550 319° Northwest 501 577 38,000  Level Denver Center
03:12PM 43.2164 -107.8975 318° Northwest 501 577 38,000  Level Salt Lake Center
03:13PM 43.3328 -108.0394 318° Northwest 502 578 38,000  Level Salt Lake Center
03:14PM 43.4325 -108.1614 318° Northwest 502 578 38,000  Level Salt Lake Center
03:15PM 43.5494 -108.3056 318° Northwest 504 580 38,000  Level Salt Lake Center
03:16PM 43.6483 -108.4267 318° Northwest 499 574 38,000  Level Salt Lake Center
03:18PM 43.7458 -108.5492 318° Northwest 497 572 38,000  Level Salt Lake Center
03:19PM 43.8533 -108.6828 318° Northwest 498 573 38,000  Level Salt Lake Center
03:20PM 43.9672 -108.8253 318° Northwest 493 567 38,000  Level Salt Lake Center
03:21PM 44.0658 -108.9497 318° Northwest 498 573 38,000  Level Salt Lake Center
03:22PM 44.1803 -109.0956 318° Northwest 500 575 38,000  Level Salt Lake Center
03:23PM 44.2794 -109.2200 318° Northwest 501 577 38,000  Level Salt Lake Center
03:24PM 44.3939 -109.3689 317° Northwest 504 580 38,000  Level Salt Lake Center
03:25PM 44.4931 -109.4944 318° Northwest 503 579 38,000  Level Salt Lake Center
03:26PM 44.5919 -109.6233 317° Northwest 507 583 38,000  Level Salt Lake Center
03:27PM 44.7056 -109.7725 317° Northwest 505 581 38,000  Level Salt Lake Center
03:28PM 44.8031 -109.8992 317° Northwest 503 579 38,000  Level Salt Lake Center
03:29PM 44.9153 -110.0475 317° Northwest 496 571 38,000  Level Salt Lake Center
03:30PM 45.0119 -110.1742 317° Northwest 496 571 38,000  Level Salt Lake Center
03:31PM 45.1244 -110.3242 317° Northwest 498 573 38,000  Level Salt Lake Center
03:32PM 45.2206 -110.4519 317° Northwest 497 572 38,000  Level Salt Lake Center
03:33PM 45.3342 -110.6042 317° Northwest 500 575 38,000  Level Salt Lake Center
03:34PM 45.4322 -110.7378 316° Northwest 506 582 38,000  Level Salt Lake Center
03:35PM 45.5458 -110.8914 317° Northwest 506 582 38,000  Level Salt Lake Center
03:36PM 45.6428 -111.0233 316° Northwest 506 582 38,000  Level Salt Lake Center
03:37PM 45.7561 -111.1786 316° Northwest 506 582 38,000  Level Salt Lake Center
03:38PM 45.8539 -111.3133 316° Northwest 508 585 38,000  Level Salt Lake Center
03:39PM 45.9500 -111.4464 316° Northwest 505 581 38,000  Level Salt Lake Center
03:40PM 46.0611 -111.6011 316° Northwest 502 578 38,000  Level Salt Lake Center
03:41PM 46.1567 -111.7336 316° Northwest 500 575 38,000  Level Salt Lake Center
03:42PM 46.2678 -111.8922 315° West 500 575 38,000  Level Salt Lake Center
03:43PM 46.3628 -112.0283 315° West 502 578 38,000  Level Salt Lake Center
03:44PM 46.4631 -112.1689 316° Northwest 501 577 38,000  Level Salt Lake Center
03:45PM 46.5636 -112.3144 315° West 508 585 38,000  Level Salt Lake Center
03:46PM 46.6633 -112.4586 315° West 506 582 38,000  Level Salt Lake Center
03:47PM 46.7828 -112.6306 315° West 504 580 38,000  Level Salt Lake Center
03:48PM 46.8831 -112.7778 315° West 509 586 38,000  Level Salt Lake Center
03:49PM 46.9822 -112.9222 315° West 505 581 38,000 -60 Level Salt Lake Center
03:50PM 47.0886 -113.0800 315° West 500 575 37,900 -60 Descending Salt Lake Center
03:52PM 47.1875 -113.2250 315° West 502 578 37,900  Level Salt Lake Center
03:53PM 47.2844 -113.3706 315° West 500 575 38,000  Climbing Salt Lake Center
03:54PM 47.3817 -113.5169 314° West 500 575 37,900  Descending Salt Lake Center
03:55PM 47.4778 -113.6622 314° West 496 571 38,000  Climbing Salt Lake Center
03:56PM 47.5742 -113.8081 314° West 495 570 37,900  Descending Salt Lake Center
04:02PM 48.1670 -114.7270 314° West 489 563 38,000  Climbing FlightAware
04:02PM 48.2350 -114.8330 314° West 491 565 38,000  Level FlightAware
04:03PM 48.2770 -114.9010 313° West 493 567 38,000  Level FlightAware
04:04PM 48.3600 -115.0330 313° West 493 567 38,000  Level FlightAware
04:04PM 48.4190 -115.1270 313° West 493 567 38,000  Level FlightAware
04:05PM 48.4730 -115.2130 313° West 494 568 38,000  Level FlightAware
04:06PM 48.5290 -115.3030 313° West 492 566 38,000  Level FlightAware
04:06PM 48.5720 -115.3740 312° West 492 566 38,000  Level FlightAware
04:07PM 48.6370 -115.4780 313° West 492 566 38,000  Level FlightAware
04:07PM 48.7080 -115.5930 313° West 486 559 38,000  Level FlightAware
04:08PM 48.7530 -115.6670 313° West 485 558 38,000  Level FlightAware
04:09PM 48.8150 -115.7690 313° West 485 558 38,000  Level FlightAware
04:09PM 48.8700 -115.8590 313° West 485 558 38,000  Level FlightAware
04:10PM 48.9240 -115.9480 313° West 483 556 38,000  Level FlightAware
04:11PM 48.9790 -116.0390 313° West 485 558 38,000  Level FlightAware
04:11PM 49.0230 -116.1120 313° West 485 558 38,000  Level FlightAware
04:12PM 49.0760 -116.2000 313° West 486 559 38,000  Level FlightAware
04:12PM 49.1300 -116.2910 312° West 488 562 38,000  Level FlightAware
04:13PM 49.1830 -116.3800 312° West 485 558 38,000  Level FlightAware
04:13PM 49.2380 -116.4730 312° West 486 559 38,000  Level FlightAware
04:14PM 49.2920 -116.5630 313° West 485 558 38,000  Level FlightAware
04:14PM 49.3390 -116.6440 312° West 485 558 38,000  Level FlightAware
04:15PM 49.3980 -116.7440 312° West 484 557 38,000  Level FlightAware
04:16PM 49.4510 -116.8340 312° West 484 557 38,000  Level FlightAware
04:16PM 49.5040 -116.9250 312° West 485 558 38,000  Level FlightAware
04:17PM 49.5560 -117.0150 312° West 484 557 38,000  Level FlightAware
04:17PM 49.6090 -117.1070 312° West 486 559 38,000  Level FlightAware
04:18PM 49.6610 -117.1970 312° West 490 564 38,000  Level FlightAware
04:19PM 49.7220 -117.3040 311° West 491 565 38,000  Level FlightAware
04:19PM 49.7790 -117.4020 312° West 491 565 38,000  Level FlightAware
04:20PM 49.8280 -117.4890 311° West 492 566 38,000  Level FlightAware
04:21PM 49.8950 -117.6060 312° West 490 564 38,000  Level FlightAware
04:21PM 49.9440 -117.6930 311° West 489 563 38,000  Level FlightAware
04:22PM 49.9920 -117.7770 312° West 488 562 38,000  Level FlightAware
04:22PM 50.0490 -117.8770 312° West 489 563 38,000  Level FlightAware
04:23PM 50.1000 -117.9700 311° West 490 564 38,000  Level FlightAware
04:23PM 50.1600 -118.0760 311° West 489 563 38,000  Level FlightAware
04:24PM 50.2070 -118.1600 311° West 489 563 38,000  Level FlightAware
04:25PM 50.2600 -118.2570 311° West 492 566 38,000  Level FlightAware
04:25PM 50.3090 -118.3450 311° West 492 566 38,000  Level FlightAware
04:26PM 50.3600 -118.4380 311° West 493 567 38,000  Level FlightAware
04:26PM 50.4150 -118.5370 311° West 492 566 38,000  Level FlightAware
04:27PM 50.4690 -118.6380 310° West 490 564 38,000  Level FlightAware
04:28PM 50.5270 -118.7430 311° West 490 564 38,000  Level FlightAware
04:28PM 50.5820 -118.8450 310° West 496 571 38,000  Level FlightAware
04:29PM 50.6290 -118.9330 310° West 495 570 38,000  Level FlightAware
04:29PM 50.6800 -119.0270 311° West 493 567 38,000  Level FlightAware
04:30PM 50.7350 -119.1310 310° West 493 567 38,000  Level FlightAware
04:31PM 50.7880 -119.2290 311° West 491 565 38,000  Level FlightAware
04:31PM 50.8390 -119.3250 310° West 491 565 38,000  Level FlightAware
04:32PM 50.8880 -119.4170 310° West 490 564 38,000  Level FlightAware
04:32PM 50.9390 -119.5150 310° West 489 563 38,000  Level FlightAware
04:33PM 50.9920 -119.6150 310° West 493 567 38,000  Level FlightAware
04:33PM 51.0390 -119.7050 310° West 494 568 38,000  Level FlightAware
04:34PM 51.0910 -119.8040 310° West 493 567 38,000  Level FlightAware
04:35PM 51.1430 -119.9050 309° West 492 566 38,000  Level FlightAware
04:35PM 51.1950 -120.0040 310° West 493 567 38,000  Level FlightAware
04:36PM 51.2480 -120.1070 309° West 495 570 38,000  Level FlightAware
04:36PM 51.2930 -120.1960 309° West 495 570 38,000  Level FlightAware
04:37PM 51.3490 -120.3040 310° West 496 571 38,000  Level FlightAware
04:38PM 51.3940 -120.3930 309° West 494 568 38,000  Level FlightAware
04:38PM 51.4470 -120.4960 310° West 491 565 38,000  Level FlightAware
04:39PM 51.4810 -120.5630 309° West 490 564 38,000  Level FlightAware
04:39PM 51.5270 -120.6560 309° West 489 563 38,000  Level FlightAware
04:40PM 51.5890 -120.7790 309° West 492 566 38,000  Level FlightAware
04:40PM 51.6240 -120.8500 308° West 492 566 38,000  Level FlightAware
04:41PM 51.6670 -120.9390 308° West 492 566 38,000  Level FlightAware
04:42PM 51.7100 -121.0270 308° West 492 566 38,000  Level FlightAware
04:42PM 51.7530 -121.1160 308° West 492 566 38,000  Level FlightAware
04:43PM 51.8340 -121.2720 310° West 495 570 38,000  Level FlightAware
04:43PM 51.8820 -121.3690 309° West 495 570 38,000  Level FlightAware
04:44PM 51.9340 -121.4750 309° West 494 568 38,000  Level FlightAware
04:44PM 51.9870 -121.5850 308° West 493 567 38,000  Level FlightAware
04:45PM 52.0320 -121.6780 308° West 492 566 38,000  Level FlightAware
04:46PM 52.0830 -121.7830 308° West 495 570 38,000  Level FlightAware
04:46PM 52.1340 -121.8880 308° West 498 573 38,000  Level FlightAware
04:47PM 52.1790 -121.9840 307° West 498 573 38,000  Level FlightAware
04:47PM 52.2310 -122.0920 308° West 496 571 38,000  Level FlightAware
04:48PM 52.2760 -122.1860 308° West 498 573 38,000  Level FlightAware
04:48PM 52.3230 -122.2850 308° West 499 574 38,000  Level FlightAware
04:49PM 52.3790 -122.4050 307° West 499 574 38,000  Level FlightAware
04:50PM 52.4280 -122.5080 308° West 502 578 38,000  Level FlightAware
04:50PM 52.4770 -122.6140 307° West 502 578 38,000  Level FlightAware
04:51PM 52.5290 -122.7250 308° West 505 581 38,000  Level FlightAware
04:51PM 52.5730 -122.8200 307° West 503 579 38,000  Level FlightAware
04:52PM 52.6250 -122.9320 307° West 503 579 38,000  Level FlightAware
04:53PM 52.6760 -123.0430 307° West 505 581 38,000  Level FlightAware
04:53PM 52.7190 -123.1380 307° West 503 579 38,000  Level FlightAware
04:54PM 52.7710 -123.2510 307° West 504 580 38,000  Level FlightAware
04:54PM 52.8140 -123.3470 307° West 503 579 38,000  Level FlightAware
04:55PM 52.8700 -123.4700 307° West 503 579 38,000  Level FlightAware
04:56PM 52.9210 -123.5830 307° West 505 581 38,000  Level FlightAware
04:56PM 52.9640 -123.6800 306° West 504 580 38,000  Level FlightAware
04:57PM 53.0150 -123.7920 307° West 504 580 38,000  Level FlightAware
04:57PM 53.0640 -123.9040 306° West 505 581 38,000  Level FlightAware
04:58PM 53.1010 -123.9870 307° West 506 582 38,000  Level FlightAware
04:58PM 53.1500 -124.0990 306° West 507 583 38,000  Level FlightAware
04:59PM 53.1990 -124.2110 306° West 507 583 38,000  Level FlightAware
04:59PM 53.2470 -124.3200 306° West 507 583 38,000  Level FlightAware
05:00PM 53.2990 -124.4400 306° West 507 583 38,000  Level FlightAware
05:01PM 53.3430 -124.5410 306° West 508 585 38,000  Level FlightAware
05:01PM 53.3920 -124.6550 306° West 507 583 38,000  Level FlightAware
05:02PM 53.4420 -124.7700 306° West 508 585 38,000  Level FlightAware
05:02PM 53.4850 -124.8700 306° West 507 583 38,000  Level FlightAware
05:03PM 53.5350 -124.9890 305° West 509 586 38,000  Level FlightAware
05:04PM 53.5850 -125.1060 306° West 508 585 38,000  Level FlightAware
05:04PM 53.6290 -125.2100 306° West 505 581 38,000  Level FlightAware
05:05PM 53.6790 -125.3290 305° West 505 581 38,000  Level FlightAware
05:05PM 53.7210 -125.4300 305° West 506 582 38,000  Level FlightAware
05:06PM 53.7650 -125.5360 305° West 511 588 38,000  Level FlightAware
05:06PM 53.8150 -125.6570 305° West 511 588 38,000  Level FlightAware
05:07PM 53.8620 -125.7710 305° West 512 589 38,000  Level FlightAware
05:08PM 53.9110 -125.8890 305° West 511 588 38,000  Level FlightAware
05:08PM 53.9570 -126.0030 304° West 511 588 38,000  Level FlightAware
05:09PM 54.0060 -126.1230 305° West 509 586 38,000  Level FlightAware
05:09PM 54.0570 -126.2480 305° West 507 583 38,000  Level FlightAware
05:10PM 54.0980 -126.3490 305° West 508 585 38,000  Level FlightAware
05:11PM 54.1480 -126.4730 305° West 505 581 38,000  Level FlightAware
05:11PM 54.1950 -126.5920 304° West 504 580 38,000  Level FlightAware
05:12PM 54.2410 -126.7090 304° West 503 579 38,000  Level FlightAware
05:12PM 54.2830 -126.8140 304° West 504 580 38,000  Level FlightAware
05:13PM 54.3400 -126.9580 304° West 504 580 38,000  Level FlightAware
05:14PM 54.3810 -127.0620 304° West 505 581 38,000  Level FlightAware
05:14PM 54.4200 -127.1640 303° West 504 580 38,000  Level FlightAware
05:15PM 54.4650 -127.2820 303° West 503 579 38,000  Level FlightAware
05:15PM 54.5150 -127.4080 304° West 501 577 38,000  Level FlightAware
05:16PM 54.5620 -127.5290 304° West 500 575 38,000  Level FlightAware
05:17PM 54.6020 -127.6350 303° West 500 575 38,000  Level FlightAware
05:17PM 54.6410 -127.7370 303° West 497 572 38,000  Level FlightAware
05:18PM 54.6970 -127.8840 303° West 497 572 38,000  Level FlightAware
05:18PM 54.7350 -127.9860 303° West 497 572 38,000  Level FlightAware
05:19PM 54.7730 -128.0890 303° West 497 572 38,000  Level FlightAware
05:20PM 54.8110 -128.1910 303° West 497 572 38,000  Level FlightAware
05:20PM 54.8500 -128.2940 303° West 497 572 38,000  Level FlightAware
05:21PM 54.8890 -128.3990 303° West 497 572 38,000  Level FlightAware
05:21PM 54.9270 -128.5020 303° West 497 572 38,000  Level FlightAware
05:22PM 54.9680 -128.6100 304° West 497 572 38,000  Level FlightAware
05:23PM 55.0060 -128.7130 303° West 497 572 38,000  Level FlightAware
05:23PM 55.0440 -128.8160 303° West 497 572 38,000  Level FlightAware
05:24PM 55.0830 -128.9190 304° West 497 572 38,000  Level FlightAware
05:24PM 55.1210 -129.0220 303° West 497 572 38,000  Level FlightAware
05:25PM 55.1590 -129.1250 303° West 497 572 38,000  Level FlightAware
05:26PM 55.1980 -129.2290 303° West 497 572 38,000  Level FlightAware
05:26PM 55.2360 -129.3320 303° West 497 572 38,000  Level FlightAware
05:27PM 55.2740 -129.4360 303° West 497 572 38,000  Level FlightAware
05:27PM 55.4000 -129.8333 303° West 490 564 38,000  Level Anchorage Center
05:28PM 55.4500 -130.0000 298° West 490 564 38,000  Level Vancouver Center
05:29PM 55.5167 -130.2000 301° West 490 564 38,000  Level Vancouver Center
05:30PM 55.5833 -130.4167 299° West 490 564 38,000  Level Vancouver Center
05:31PM 55.6667 -130.6333 304° West 490 564 38,000  Level Vancouver Center
05:32PM 55.7333 -130.8167 303° West 480 552 38,000  Level Vancouver Center
05:33PM 55.7833 -131.0333 292° West 470 541 38,000  Level Vancouver Center
05:34PM 55.8667 -131.2333 307° West 480 552 38,000  Level Vancouver Center
05:35PM 55.9333 -131.4500 299° West 480 552 38,000  Level Vancouver Center
05:36PM 55.9833 -131.6500 294° West 490 564 38,000  Level Vancouver Center
05:37PM 56.0667 -131.8667 305° West 480 552 38,000  Level Vancouver Center
05:38PM 56.1333 -132.0667 301° West 480 552 38,000  Level Vancouver Center
05:39PM 56.1833 -132.2833 293° West 470 541 38,000  Level Vancouver Center
05:40PM 56.2500 -132.4833 301° West 480 552 38,000  Level Vancouver Center
05:41PM 56.3167 -132.6833 301° West 480 552 38,000  Level Vancouver Center
05:42PM 56.3667 -132.9000 293° West 480 552 38,000  Level Vancouver Center
05:43PM 56.4500 -133.1000 307° West 480 552 38,000  Level Vancouver Center
05:44PM 56.5000 -133.2667 299° West 470 541 38,000  Level Vancouver Center
05:45PM 56.5500 -133.4833 293° West 460 529 38,000  Level Vancouver Center
05:46PM 56.6167 -133.7167 298° West 470 541 38,000  Level Vancouver Center
05:47PM 56.6667 -133.9500 291° West 470 541 38,000  Level Vancouver Center
05:48PM 56.7167 -134.1333 296° West 470 541 38,000  Level Vancouver Center
05:49PM 56.7667 -134.3667 291° West 470 541 38,000  Level Vancouver Center
05:50PM 56.8333 -134.6000 298° West 470 541 38,000  Level Vancouver Center
05:51PM 56.8833 -134.8000 295° West 470 541 38,000  Level Vancouver Center
05:52PM 56.9333 -135.0333 292° West 470 541 38,000  Level Vancouver Center
05:53PM 56.9833 -135.2667 292° West 480 552 38,000  Level Vancouver Center
05:54PM 57.0333 -135.4667 295° West 480 552 38,000  Level Vancouver Center
05:55PM 57.0833 -135.7000 292° West 480 552 38,000  Level Vancouver Center
05:56PM 57.1333 -135.9333 292° West 480 552 38,000  Level Vancouver Center
05:57PM 57.2000 -136.1333 302° West 480 552 38,000  Level Vancouver Center
05:58PM 57.2333 -136.3667 285° West 480 552 38,000  Level Vancouver Center
05:59PM 57.2833 -136.6000 292° West 480 552 38,000  Level Vancouver Center
06:00PM 57.3333 -136.8333 292° West 480 552 38,000  Level Vancouver Center
06:01PM 57.4000 -137.0500 300° West 480 552 38,000  Level Vancouver Center
06:02PM 57.4333 -137.2833 285° West 480 552 38,000  Level Vancouver Center
06:03PM 57.4667 -137.3500 313° West 480 552 38,000  Level Anchorage Center
06:03PM 57.4833 -137.5167 281° West 480 552 38,000  Level Vancouver Center
06:04PM 57.5333 -137.7500 292° West 480 552 38,000  Level Vancouver Center
06:05PM 57.5667 -137.8000 321° Northwest 470 541 38,000  Level Anchorage Center
06:06PM 57.6000 -138.0333 285° West 470 541 38,000  Level Anchorage Center
06:07PM 57.6500 -138.2667 292° West 480 552 38,000  Level Anchorage Center
06:08PM 57.7000 -138.5000 292° West 480 552 38,000  Level Anchorage Center
06:09PM 57.7333 -138.7000 287° West 480 552 38,000  Level Anchorage Center
06:10PM 57.7833 -138.9333 292° West 480 552 38,000  Level Anchorage Center
06:11PM 57.8333 -139.1667 292° West 480 552 38,000  Level Anchorage Center
06:12PM 57.8833 -139.4167 291° West 490 564 38,000  Level Anchorage Center
06:13PM 57.9333 -139.6500 292° West 480 552 38,000  Level Anchorage Center
06:14PM 57.9667 -139.8833 285° West 470 541 38,000  Level Anchorage Center
06:15PM 58.0167 -140.1333 291° West 480 552 38,000  Level Anchorage Center
06:16PM 58.0500 -140.3667 285° West 480 552 38,000  Level Anchorage Center
06:17PM 58.0833 -140.6167 284° West 480 552 38,000  Level Anchorage Center
06:18PM 58.1167 -140.8667 284° West 480 552 38,000  Level Anchorage Center
06:19PM 58.1500 -141.1167 284° West 490 564 38,000  Level Anchorage Center
06:20PM 58.1833 -141.3667 284° West 490 564 38,000  Level Anchorage Center
06:21PM 58.2167 -141.6167 284° West 480 552 38,000  Level Anchorage Center
06:22PM 58.2500 -141.8667 284° West 490 564 38,000  Level Anchorage Center
06:23PM 58.2667 -142.1167 277° West 480 552 38,000  Level Anchorage Center
06:24PM 58.3000 -142.3667 284° West 490 564 38,000  Level Anchorage Center
06:25PM 58.3333 -142.6167 284° West 480 552 38,000  Level Anchorage Center
06:26PM 58.3667 -142.8667 284° West 480 552 38,000  Level Anchorage Center
06:27PM 58.4000 -143.1500 283° West 480 552 38,000  Level Anchorage Center
06:28PM 58.4333 -143.4000 284° West 480 552 38,000  Level Anchorage Center
06:29PM 58.4500 -143.6000 279° West 480 552 38,000  Level Anchorage Center
06:30PM 58.4833 -143.8500 284° West 480 552 38,000  Level Anchorage Center
06:31PM 58.5000 -144.1000 277° West 480 552 38,000  Level Anchorage Center
06:32PM 58.5333 -144.3667 284° West 480 552 38,000  Level Anchorage Center
06:33PM 58.5667 -144.6167 284° West 480 552 38,000  Level Anchorage Center
06:34PM 58.5833 -144.8667 277° West 490 564 38,000  Level Anchorage Center
06:35PM 58.6167 -145.1333 284° West 480 552 38,000  Level Anchorage Center
06:36PM 58.6333 -145.3833 277° West 480 552 38,000  Level Anchorage Center
06:37PM 58.6500 -145.6333 277° West 480 552 38,000  Level Anchorage Center
06:38PM 58.6833 -145.9000 284° West 480 552 38,000  Level Anchorage Center
06:39PM 58.7000 -146.1500 277° West 480 552 38,000  Level Anchorage Center
06:40PM 58.7333 -146.4000 285° West 470 541 38,000  Level Anchorage Center
06:41PM 58.7500 -146.6667 277° West 470 541 38,000  Level Anchorage Center
06:42PM 58.7667 -146.9167 277° West 480 552 38,000  Level Anchorage Center
06:43PM 58.8000 -147.1667 285° West 470 541 38,000  Level Anchorage Center
06:49PM 58.9230 -148.7980 285° West 474 545 38,000  Level FlightAware
06:49PM 58.9320 -148.9380 277° West 475 547 38,000  Level FlightAware
06:50PM 58.9430 -149.1100 277° West 475 547 38,000 720 Level FlightAware
06:51PM 58.9600 -149.3500 278° West 469 540 39,200 780 Climbing FlightAware
06:52PM 58.9680 -149.4780 277° West 469 540 39,200 600 Level FlightAware
06:52PM 58.9810 -149.6840 277° West 468 539 40,000 660 Climbing FlightAware
06:53PM 58.9890 -149.8180 277° West 466 536 40,000  Level FlightAware
06:54PM 58.9970 -149.9600 276° West 466 536 40,000  Level FlightAware
06:54PM 59.0040 -150.0870 276° West 466 536 40,000  Level FlightAware
06:55PM 59.0110 -150.2150 276° West 466 536 40,000  Level FlightAware
06:55PM 59.0170 -150.3420 275° West 466 536 40,000  Level FlightAware
06:56PM 59.0240 -150.4700 276° West 466 536 40,000  Level FlightAware
06:57PM 59.0310 -150.5970 276° West 466 536 40,000  Level FlightAware
06:57PM 59.0380 -150.7250 276° West 466 536 40,000  Level FlightAware
06:58PM 59.0450 -150.8520 276° West 466 536 40,000  Level FlightAware
06:58PM 59.0410 -151.1950 269° West 467 537 40,000  Level FlightAware
06:59PM 59.0460 -151.4020 273° West 464 534 40,000  Level FlightAware
07:00PM 59.0510 -151.5600 274° West 460 529 40,000  Level FlightAware
07:00PM 59.0550 -151.7170 273° West 460 529 40,000  Level FlightAware
07:01PM 59.0590 -151.8620 273° West 462 532 40,000  Level FlightAware
07:02PM 59.0610 -152.0100 272° West 462 532 40,000  Level FlightAware
07:02PM 59.0640 -152.1400 273° West 462 532 40,000  Level FlightAware
07:03PM 59.0660 -152.2670 272° West 462 532 40,000  Level FlightAware
07:04PM 59.0680 -152.3950 272° West 462 532 40,000  Level FlightAware
07:04PM 59.0700 -152.5220 272° West 462 532 40,000  Level FlightAware
07:05PM 59.0730 -152.6490 273° West 462 532 40,000  Level FlightAware
07:05PM 59.0750 -152.7760 272° West 462 532 40,000  Level FlightAware
07:06PM 59.0820 -153.0830 273° West 460 529 40,000  Level FlightAware
07:07PM 59.0850 -153.2570 272° West 463 533 40,000  Level FlightAware
07:07PM 59.0870 -153.3980 272° West 460 529 40,000  Level FlightAware
07:08PM 59.0890 -153.5870 271° West 459 528 40,000  Level FlightAware
07:09PM 59.0900 -153.7170 271° West 459 528 40,000  Level FlightAware
07:09PM 59.0910 -153.8430 271° West 459 528 40,000  Level FlightAware
07:10PM 59.0920 -153.9700 271° West 459 528 40,000  Level FlightAware
07:11PM 59.0930 -154.0960 271° West 459 528 40,000  Level FlightAware
07:11PM 59.0940 -154.2230 271° West 459 528 40,000  Level FlightAware
07:12PM 59.0950 -154.3490 271° West 459 528 40,000  Level FlightAware
07:12PM 59.0960 -154.4790 271° West 459 528 40,000  Level FlightAware
07:13PM 59.0970 -154.6060 271° West 459 528 40,000  Level FlightAware
07:14PM 59.0990 -154.7320 272° West 459 528 40,000  Level FlightAware
07:14PM 59.1000 -154.8590 271° West 459 528 40,000  Level FlightAware
07:15PM 59.1010 -154.9890 271° West 459 528 40,000  Level FlightAware
07:15PM 59.1020 -155.1150 271° West 459 528 40,000  Level FlightAware
07:16PM 59.1030 -155.2420 271° West 459 528 40,000  Level FlightAware
07:17PM 59.1040 -155.3680 271° West 459 528 40,000  Level FlightAware
07:17PM 59.1050 -155.4950 271° West 459 528 40,000  Level FlightAware
07:19PM 59.0833 -156.1167 271° West 430 495 40,000  Level Anchorage Center
07:20PM 59.0833 -156.3667 270° West 440 506 40,000  Level Anchorage Center
07:21PM 59.0833 -156.6000 270° West 440 506 40,000  Level Anchorage Center
07:22PM 59.0833 -156.8333 270° West 430 495 40,000  Level Anchorage Center
07:23PM 59.0667 -157.0667 262° West 430 495 40,000  Level Anchorage Center
07:24PM 59.0667 -157.3000 270° West 440 506 40,000  Level Anchorage Center
07:25PM 59.0667 -157.5500 270° West 440 506 40,000  Level Anchorage Center
07:26PM 59.0667 -157.7833 270° West 430 495 40,000  Level Anchorage Center
07:27PM 59.0500 -158.0167 262° West 440 506 40,000  Level Anchorage Center
07:28PM 59.0500 -158.2500 270° West 440 506 40,000  Level Anchorage Center
07:29PM 59.0333 -158.5000 263° West 430 495 40,000  Level Anchorage Center
07:30PM 59.0333 -158.7333 270° West 440 506 40,000  Level Anchorage Center
07:31PM 59.0333 -158.9667 270° West 430 495 40,000  Level Anchorage Center
07:32PM 59.0167 -159.2000 262° West 430 495 40,000  Level Anchorage Center
07:33PM 59.0167 -159.4333 270° West 430 495 40,000  Level Anchorage Center
07:34PM 59.0000 -159.7000 263° West 430 495 40,000  Level Anchorage Center
07:35PM 59.0000 -159.9333 270° West 420 483 40,000  Level Anchorage Center
07:36PM 58.9833 -160.1500 262° West 420 483 40,000  Level Anchorage Center
07:37PM 58.9833 -160.3833 270° West 410 472 40,000  Level Anchorage Center
07:38PM 58.9833 -160.6000 270° West 420 483 40,000  Level Anchorage Center
07:39PM 58.9833 -160.8333 270° West 410 472 40,000  Level Anchorage Center
07:40PM 58.9667 -161.0500 262° West 420 483 40,000  Level Anchorage Center
07:41PM 58.9667 -161.2833 270° West 410 472 40,000  Level Anchorage Center
07:42PM 58.9667 -161.5000 270° West 410 472 40,000  Level Anchorage Center
07:43PM 58.9500 -161.7167 262° West 410 472 40,000  Level Anchorage Center
07:44PM 58.9500 -161.9000 270° West 410 472 40,000  Level Anchorage Center
07:45PM 58.9500 -162.1667 270° West 410 472 40,000  Level Anchorage Center
07:46PM 58.9333 -162.3833 262° West 400 460 40,000  Level Anchorage Center
07:47PM 58.9333 -162.6000 270° West 410 472 40,000  Level Anchorage Center
07:48PM 58.9167 -162.8167 262° West 410 472 40,000  Level Anchorage Center
07:49PM 58.9167 -163.0333 270° West 400 460 40,000  Level Anchorage Center
07:50PM 58.9000 -163.2500 262° West 400 460 40,000  Level Anchorage Center
07:51PM 58.9000 -163.4667 270° West 400 460 40,000  Level Anchorage Center
07:52PM 58.8833 -163.6833 262° West 410 472 40,000  Level Anchorage Center
07:53PM 58.8833 -163.9000 270° West 400 460 40,000  Level Anchorage Center
07:54PM 58.8667 -164.1167 262° West 400 460 40,000  Level Anchorage Center
07:55PM 58.8500 -164.3333 262° West 400 460 40,000  Level Anchorage Center
07:56PM 58.8500 -164.5500 270° West 400 460 40,000  Level Anchorage Center
07:57PM 58.8333 -164.7667 262° West 400 460 40,000  Level Anchorage Center
07:58PM 58.8333 -164.9833 270° West 400 460 40,000  Level Anchorage Center
07:59PM 58.8167 -165.2167 262° West 410 472 40,000  Level Anchorage Center
08:00PM 58.8000 -165.4333 262° West 410 472 40,000  Level Anchorage Center
08:01PM 58.7833 -165.6500 262° West 410 472 40,000  Level Anchorage Center
08:02PM 58.7833 -165.8667 270° West 410 472 40,000  Level Anchorage Center
08:03PM 58.7500 -166.1833 259° West 410 472 40,000  Level Anchorage Center
08:04PM 58.7500 -166.4000 270° West 410 472 40,000  Level Anchorage Center
08:05PM 58.7333 -166.6333 262° West 420 483 40,000  Level Anchorage Center
08:06PM 58.7167 -166.8333 261° West 410 472 40,000  Level Anchorage Center
08:07PM 58.7000 -167.0500 262° West 400 460 40,000  Level Anchorage Center
08:08PM 58.6833 -167.2833 262° West 410 472 40,000  Level Anchorage Center
08:09PM 58.6667 -167.5000 262° West 410 472 40,000  Level Anchorage Center
08:10PM 58.6500 -167.7167 262° West 410 472 40,000  Level Anchorage Center
08:11PM 58.6167 -167.9500 255° West 420 483 40,000  Level Anchorage Center
08:12PM 58.6000 -168.1667 262° West 420 483 40,000  Level Anchorage Center
08:13PM 58.5833 -168.3833 262° West 430 495 40,000  Level Anchorage Center
08:14PM 58.5667 -168.6167 262° West 420 483 40,000  Level Anchorage Center
08:15PM 58.5500 -168.8333 262° West 430 495 40,000  Level Anchorage Center
08:16PM 58.5167 -169.0667 255° West 430 495 40,000  Level Anchorage Center
08:17PM 58.5000 -169.2833 262° West 420 483 40,000  Level Anchorage Center
08:18PM 58.4833 -169.5167 262° West 430 495 40,000  Level Anchorage Center
08:19PM 58.4500 -169.7500 255° West 430 495 40,000  Level Anchorage Center
08:20PM 58.4333 -169.9833 262° West 430 495 40,000  Level Anchorage Center
08:21PM 58.4000 -170.2000 254° West 430 495 40,000  Level Anchorage Center
08:22PM 58.3833 -170.4333 262° West 430 495 40,000  Level Anchorage Center
08:23PM 58.3500 -170.6500 254° West 440 506 40,000  Level Anchorage Center
08:24PM 58.3333 -170.8833 262° West 440 506 40,000  Level Anchorage Center
08:25PM 58.3000 -171.1000 254° West 420 483 40,000  Level Anchorage Center
08:26PM 58.2833 -171.3333 262° West 430 495 40,000  Level Anchorage Center
08:27PM 58.2500 -171.5500 254° West 430 495 40,000  Level Anchorage Center
08:28PM 58.2333 -171.7833 262° West 430 495 40,000  Level Anchorage Center
08:29PM 58.2000 -172.0000 254° West 430 495 40,000  Level Anchorage Center
08:30PM 58.1833 -172.2167 262° West 430 495 40,000  Level Anchorage Center
08:31PM 58.1500 -172.4500 255° West 430 495 40,000  Level Anchorage Center
08:32PM 58.1167 -172.6667 254° West 430 495 40,000  Level Anchorage Center
08:33PM 58.1000 -172.9000 262° West 440 506 40,000  Level Anchorage Center
08:34PM 58.0667 -173.1167 254° West 440 506 40,000  Level Anchorage Center
08:35PM 58.0333 -173.3500 255° West 440 506 40,000  Level Anchorage Center
08:36PM 58.0000 -173.5833 255° West 450 518 40,000  Level Anchorage Center
08:37PM 57.9667 -173.8000 254° West 450 518 40,000  Level Anchorage Center
08:38PM 57.9500 -174.0333 262° West 440 506 40,000  Level Anchorage Center
08:39PM 57.9167 -174.2500 254° West 440 506 40,000  Level Anchorage Center
08:40PM 57.8833 -174.4833 255° West 440 506 40,000  Level Anchorage Center
08:41PM 57.8500 -174.7000 254° West 440 506 40,000  Level Anchorage Center
08:42PM 57.8167 -174.9333 255° West 450 518 40,000  Level Anchorage Center
08:43PM 57.7833 -175.1667 255° West 450 518 40,000  Level Anchorage Center
08:44PM 57.7500 -175.3833 254° West 450 518 40,000  Level Anchorage Center
08:45PM 57.7167 -175.5667 251° West 460 529 40,000  Level Anchorage Center
08:46PM 57.6833 -175.8000 255° West 460 529 40,000  Level Anchorage Center
08:47PM 57.6500 -176.0333 255° West 460 529 40,000  Level Anchorage Center
08:48PM 57.6167 -176.2667 255° West 460 529 40,000  Level Anchorage Center
08:50PM 57.5333 -176.8000 252° West 453 521 40,000  Level Anchorage Center
08:57PM 57.2914 -178.1447 251° West 453 521 40,000  Level FlightAware Transoceanic
08:58PM 57.2497 -178.3670 251° West 453 521 40,000  Level FlightAware Transoceanic
08:58PM 57.2167 -178.5667 251° West 448 516 40,000  Level Anchorage Center
08:59PM 57.2076 -178.5889 251° West 453 521 40,000  Level FlightAware Transoceanic
09:00PM 57.1651 -178.8103 250° West 453 521 40,000  Level FlightAware Transoceanic
09:01PM 57.1223 -179.0311 250° West 453 521 40,000  Level FlightAware Transoceanic
09:02PM 57.0790 -179.2514 250° West 453 521 40,000  Level FlightAware Transoceanic
09:03PM 57.0354 -179.4713 250° West 453 521 40,000  Level FlightAware Transoceanic
09:04PM 56.9913 -179.6906 250° West 453 521 40,000  Level FlightAware Transoceanic
09:05PM 56.9608 -179.8619 249° West 448 516 40,000  Level FlightAware Transoceanic
09:06PM 56.9169 179.9240 249° West 448 516 40,000  Level FlightAware Transoceanic
09:07PM 56.8725 179.7103 249° West 448 516 40,000  Level FlightAware Transoceanic
09:08PM 56.8279 179.4972 249° West 448 516 40,000  Level FlightAware Transoceanic
09:08PM 56.8000 179.3500 249° West 455 524 40,000  Level Anchorage Center
09:09PM 56.7828 179.2846 249° West 448 516 40,000  Level FlightAware Transoceanic
09:10PM 56.7375 179.0725 249° West 448 516 40,000  Level FlightAware Transoceanic
09:11PM 56.6917 178.8610 248° West 448 516 40,000  Level FlightAware Transoceanic
09:12PM 56.6456 178.6499 248° West 448 516 40,000  Level FlightAware Transoceanic
09:13PM 56.5991 178.4394 248° West 448 516 40,000  Level FlightAware Transoceanic
09:14PM 56.5200 178.0734 248° West 455 524 40,000  Level FlightAware Transoceanic
09:15PM 56.4721 177.8625 248° West 455 524 40,000  Level FlightAware Transoceanic
09:16PM 56.4238 177.6521 247° West 455 524 40,000  Level FlightAware Transoceanic
09:17PM 56.3751 177.4423 247° West 455 524 40,000  Level FlightAware Transoceanic
09:17PM 56.3333 177.2833 247° West 459 528 40,000  Level Anchorage Center
09:18PM 56.3261 177.2330 247° West 455 524 40,000  Level FlightAware Transoceanic
09:19PM 56.2768 177.0242 247° West 455 524 40,000  Level FlightAware Transoceanic
09:19PM 56.2167 176.8500 246° West 470 541 40,000  Level Anchorage Center
09:20PM 56.2271 176.8160 247° West 455 524 40,000  Level FlightAware Transoceanic
09:21PM 56.1771 176.6083 246° West 455 524 40,000  Level FlightAware Transoceanic
09:21PM 56.1588 176.6202 246° West  Level Estimated
09:22PM 56.1267 176.4012 246° West 455 524 40,000  Level FlightAware Transoceanic
09:22PM 56.1000 176.3833 246° West 450 518 40,000  Level Anchorage Center
09:23PM 56.0759 176.1945 246° West 455 524 40,000  Level FlightAware Transoceanic
09:23PM 56.0667 176.2000 252° West 460 529 40,000  Level Anchorage Center
09:24PM 56.0308 176.0267 246° West 459 528 40,000  Level FlightAware Transoceanic
09:24PM 56.0000 175.9667 243° Southwest 460 529 40,000  Level Anchorage Center
09:25PM 55.9791 175.8192 246° West 459 528 40,000  Level FlightAware Transoceanic
09:25PM 55.9667 175.7833 252° West 460 529 40,000  Level Anchorage Center
09:26PM 55.9000 175.5667 241° Southwest 450 518 40,000  Level Anchorage Center
09:27PM 55.8667 175.3833 252° West 450 518 40,000  Level Anchorage Center
09:28PM 55.8000 175.1667 241° Southwest 460 529 40,000  Level Anchorage Center
09:29PM 55.7500 174.9333 249° West 460 529 40,000  Level Anchorage Center
09:30PM 55.7000 174.7500 244° Southwest 460 529 40,000  Level Anchorage Center
09:31PM 55.6333 174.5333 241° Southwest 460 529 40,000  Level Anchorage Center
09:32PM 55.5833 174.3500 244° Southwest 460 529 40,000  Level Anchorage Center
09:33PM 55.5333 174.1333 248° West 460 529 40,000  Level Anchorage Center
09:34PM 55.4833 173.9500 244° Southwest 460 529 40,000  Level Anchorage Center
09:35PM 55.4167 173.7333 242° Southwest 450 518 40,000  Level Anchorage Center
09:36PM 55.3667 173.5167 248° West 450 518 40,000  Level Anchorage Center
09:37PM 55.3167 173.3500 242° Southwest 450 518 40,000  Level Anchorage Center
09:38PM 55.2500 173.1333 242° Southwest 460 529 40,000  Level Anchorage Center
09:39PM 55.2000 172.9500 245° Southwest 450 518 40,000  Level Anchorage Center
09:40PM 55.1500 172.7333 248° West 460 529 40,000  Level Anchorage Center
09:41PM 55.1000 172.5667 242° Southwest 450 518 40,000  Level Anchorage Center
09:42PM 55.0333 172.3500 242° Southwest 460 529 40,000  Level Anchorage Center
09:43PM 54.9667 172.1500 240° Southwest 450 518 40,000  Level Anchorage Center
09:44PM 54.9167 171.9833 242° Southwest 450 518 40,000  Level Anchorage Center
09:45PM 54.8500 171.7833 240° Southwest 450 518 40,000  Level Anchorage Center
09:46PM 54.7833 171.6333 232° Southwest 450 518 40,000  Level Anchorage Center
09:47PM 54.7000 171.4333 234° Southwest 460 529 40,000  Level Anchorage Center
09:48PM 54.6333 171.2833 233° Southwest 460 529 40,000  Level Anchorage Center
09:49PM 54.5500 171.0833 234° Southwest 480 552 40,000  Level Anchorage Center
09:50PM 54.4833 170.9333 233° Southwest 430 495 40,000  Level Anchorage Center
09:51PM 54.4167 170.7500 238° Southwest 450 518 40,000  Level Anchorage Center
09:52PM 54.3333 170.5667 232° Southwest 450 518 40,000  Level Anchorage Center
09:53PM 54.2500 170.4000 229° Southwest 480 552 40,000  Level Anchorage Center
09:54PM 54.1833 170.2167 238° Southwest 440 506 40,000  Level Anchorage Center
09:55PM 54.1167 170.0667 233° Southwest 450 518 40,000  Level Anchorage Center
09:56PM 54.0333 169.8833 232° Southwest 450 518 40,000  Level Anchorage Center
09:57PM 53.9667 169.7500 230° Southwest 440 506 40,000  Level Anchorage Center
09:58PM 53.9000 169.5667 238° Southwest 430 495 40,000  Level Anchorage Center
09:59PM 53.8167 169.3833 232° Southwest 440 506 40,000  Level Anchorage Center
10:00PM 53.7500 169.2500 230° Southwest 440 506 40,000  Level Anchorage Center
10:01PM 53.6667 169.0500 235° Southwest 470 541 40,000  Level Anchorage Center
10:03PM 53.5667 168.7000 244° Southwest 450 518 40,000  Level Anchorage Center
10:04PM 53.5000 168.5333 236° Southwest 440 506 40,000  Level Anchorage Center
10:05PM 53.4500 168.3833 241° Southwest 460 529 40,000  Level Anchorage Center
10:06PM 53.3833 168.1833 241° Southwest 420 483 40,000  Level Anchorage Center
10:07PM 53.3167 168.0000 239° Southwest 460 529 40,000  Level Anchorage Center
10:08PM 53.2500 167.8000 241° Southwest 450 518 40,000  Level Anchorage Center
10:10PM 53.1281 167.4571 239° Southwest  Level FlightAware Approximate
10:15PM 52.8167 166.5667 238° Southwest 432 497 40,000  Level Anchorage Center
10:17PM 52.6664 166.1997 239° Southwest  Level FlightAware Approximate
10:18PM 52.5993 166.0222 238° Southwest  Level FlightAware Approximate
10:19PM 52.5321 165.8453 238° Southwest  Level FlightAware Approximate
10:20PM 52.4645 165.6689 238° Southwest  Level FlightAware Approximate
10:21PM 52.4382 165.5694 238° Southwest 432 497 40,000  Level FlightAware Transoceanic
10:22PM 52.3744 165.4049 237° Southwest 432 497 40,000  Level FlightAware Transoceanic
10:23PM 52.3102 165.2408 237° Southwest 432 497 40,000  Level FlightAware Transoceanic
10:24PM 52.2459 165.0772 237° Southwest 432 497 40,000  Level FlightAware Transoceanic
10:25PM 52.1814 164.9141 237° Southwest 432 497 40,000  Level FlightAware Transoceanic
10:25PM 52.2000 164.9833 237° Southwest 431 496 40,000  Level Anchorage Center
10:26PM 52.1166 164.7515 237° Southwest 432 497 40,000  Level FlightAware Transoceanic
10:27PM 52.0516 164.5893 237° Southwest 432 497 40,000  Level FlightAware Transoceanic
10:28PM 51.9863 164.4276 237° Southwest 432 497 40,000  Level FlightAware Transoceanic
10:29PM 51.9209 164.2664 237° Southwest 432 497 40,000  Level FlightAware Transoceanic
10:30PM 51.8552 164.1056 236° Southwest 432 497 40,000  Level FlightAware Transoceanic
10:31PM 51.8161 164.0285 236° Southwest 431 496 40,000  Level FlightAware Transoceanic
10:32PM 51.7514 163.8709 236° Southwest 431 496 40,000  Level FlightAware Transoceanic
10:33PM 51.6864 163.7138 236° Southwest 431 496 40,000  Level FlightAware Transoceanic
10:33PM 51.6500 163.6500 236° Southwest 431 496 40,000  Level Anchorage Center
10:34PM 51.6213 163.5572 236° Southwest 431 496 40,000  Level FlightAware Transoceanic
10:34PM 51.5667 163.4500 236° Southwest 429 494 40,000  Level Anchorage Center
10:35PM 51.5559 163.4010 236° Southwest 431 496 40,000  Level FlightAware Transoceanic
10:36PM 51.4904 163.2452 236° Southwest 431 496 40,000  Level FlightAware Transoceanic
10:37PM 51.4246 163.0899 236° Southwest 431 496 40,000  Level FlightAware Transoceanic
10:38PM 51.3586 162.9351 236° Southwest 431 496 40,000  Level FlightAware Transoceanic
10:39PM 51.2492 162.6985 236° Southwest 431 496 40,000  Level FlightAware Transoceanic
10:40PM 51.2222 162.6363 236° Southwest 429 494 40,000  Level FlightAware Transoceanic
10:41PM 51.1527 162.4750 235° Southwest 429 494 40,000  Level FlightAware Transoceanic
10:42PM 51.0829 162.3142 235° Southwest 429 494 40,000  Level FlightAware Transoceanic
10:43PM 51.0129 162.1539 235° Southwest 429 494 40,000  Level FlightAware Transoceanic
10:44PM 50.9427 161.9941 235° Southwest 429 494 40,000  Level FlightAware Transoceanic
10:44PM 50.9333 161.9500 235° Southwest 430 495 40,000  Level Anchorage Center
10:45PM 50.8722 161.8348 235° Southwest 429 494 40,000  Level FlightAware Transoceanic
10:46PM 50.8016 161.6759 235° Southwest 429 494 40,000  Level FlightAware Transoceanic
10:47PM 50.7307 161.5175 235° Southwest 429 494 40,000  Level FlightAware Transoceanic
10:48PM 50.6596 161.3596 235° Southwest 429 494 40,000  Level FlightAware Transoceanic
10:49PM 50.5883 161.2022 234° Southwest 429 494 40,000  Level FlightAware Transoceanic
10:50PM 50.5106 161.0171 234° Southwest 430 495 40,000  Level FlightAware Transoceanic
10:51PM 50.4394 160.8633 234° Southwest 430 495 40,000  Level FlightAware Transoceanic
10:52PM 50.3680 160.7099 234° Southwest 430 495 40,000  Level FlightAware Transoceanic
10:53PM 50.2964 160.5569 234° Southwest 430 495 40,000  Level FlightAware Transoceanic
10:53PM 50.2500 160.4833 234° Southwest 434 499 40,000  Level Anchorage Center
10:54PM 50.2247 160.4045 234° Southwest 430 495 40,000  Level FlightAware Transoceanic
10:54PM 50.2000 160.3833 234° Southwest 439 505 40,000  Level Anchorage Center
10:55PM 50.1527 160.2525 233° Southwest 430 495 40,000  Level FlightAware Transoceanic
10:56PM 50.0805 160.1009 233° Southwest 430 495 40,000  Level FlightAware Transoceanic
10:57PM 50.0081 159.9498 233° Southwest 430 495 40,000  Level FlightAware Transoceanic
10:58PM 49.9355 159.7992 233° Southwest 430 495 40,000  Level FlightAware Transoceanic
10:59PM 49.8628 159.6490 233° Southwest 430 495 40,000  Level FlightAware Transoceanic
11:00PM 49.7863 159.4964 234° Southwest 439 505 40,000  Level FlightAware Transoceanic
11:01PM 49.7167 159.3500 233° Southwest 439 505 40,000  Level FlightAware Transoceanic
11:02PM 49.6428 159.1993 233° Southwest 439 505 40,000  Level FlightAware Transoceanic
11:03PM 49.5688 159.0490 233° Southwest 439 505 40,000  Level FlightAware Transoceanic
11:04PM 49.4946 158.8992 233° Southwest 439 505 40,000  Level FlightAware Transoceanic
11:05PM 49.4202 158.7499 232° Southwest 439 505 40,000  Level FlightAware Transoceanic
11:06PM 49.3456 158.6010 232° Southwest 439 505 40,000  Level FlightAware Transoceanic
11:07PM 49.2709 158.4526 232° Southwest 439 505 40,000  Level FlightAware Transoceanic
11:08PM 49.1959 158.3046 232° Southwest 439 505 40,000  Level FlightAware Transoceanic
11:09PM 49.1207 158.1571 232° Southwest 439 505 40,000  Level FlightAware Transoceanic
11:10PM 49.0454 158.0100 232° Southwest 439 505 40,000  Level FlightAware Transoceanic
11:11PM 48.9698 157.8633 232° Southwest 439 505 40,000  Level FlightAware Transoceanic
11:12PM 48.8941 157.7171 232° Southwest 439 505 40,000  Level FlightAware Transoceanic
11:13PM 48.8182 157.5714 232° Southwest 439 505 40,000  Level FlightAware Transoceanic
11:14PM 48.7421 157.4261 231° Southwest 439 505 40,000  Level FlightAware Transoceanic
11:15PM 48.6659 157.2812 231° Southwest 439 505 40,000  Level FlightAware Transoceanic
11:16PM 48.5894 157.1367 231° Southwest 439 505 40,000  Level FlightAware Transoceanic
11:17PM 48.5128 156.9927 231° Southwest 439 505 40,000  Level FlightAware Transoceanic
11:18PM 48.4360 156.8492 231° Southwest 439 505 40,000  Level FlightAware Transoceanic
11:19PM 48.3590 156.7060 231° Southwest 439 505 40,000  Level FlightAware Transoceanic
11:20PM 48.2818 156.5633 231° Southwest 439 505 40,000  Level FlightAware Transoceanic
11:21PM 48.2045 156.4211 231° Southwest 439 505 40,000  Level FlightAware Transoceanic
11:22PM 48.1270 156.2792 231° Southwest 439 505 40,000  Level FlightAware Transoceanic
11:23PM 48.0493 156.1378 231° Southwest 439 505 40,000  Level FlightAware Transoceanic
11:24PM 47.9714 155.9968 230° Southwest 439 505 40,000  Level FlightAware Transoceanic
11:25PM 47.8934 155.8563 230° Southwest 439 505 40,000  Level FlightAware Transoceanic
11:26PM 47.8152 155.7162 230° Southwest 439 505 40,000  Level FlightAware Transoceanic
11:27PM 47.7368 155.5764 230° Southwest 439 505 40,000  Level FlightAware Transoceanic
11:28PM 47.6583 155.4371 230° Southwest 439 505 40,000  Level FlightAware Transoceanic
11:29PM 47.5796 155.2983 230° Southwest 439 505 40,000  Level FlightAware Transoceanic
11:30PM 47.5007 155.1598 230° Southwest 439 505 40,000  Level FlightAware Transoceanic
11:31PM 47.4216 155.0218 230° Southwest 439 505 40,000  Level FlightAware Transoceanic
11:32PM 47.3424 154.8841 230° Southwest 439 505 40,000  Level FlightAware Transoceanic
11:33PM 47.2631 154.7469 229° Southwest 439 505 40,000  Level FlightAware Transoceanic
11:34PM 47.1835 154.6101 229° Southwest 439 505 40,000  Level FlightAware Transoceanic
11:35PM 47.1038 154.4737 229° Southwest 439 505 40,000  Level FlightAware Transoceanic
11:36PM 47.0240 154.3377 229° Southwest 439 505 40,000  Level FlightAware Transoceanic
11:37PM 46.9439 154.2022 229° Southwest 439 505 40,000  Level FlightAware Transoceanic
11:38PM 46.8638 154.0670 229° Southwest 439 505 40,000  Level FlightAware Transoceanic
11:39PM 46.7834 153.9322 229° Southwest 439 505 40,000  Level FlightAware Transoceanic
11:40PM 46.7029 153.7979 229° Southwest 439 505 40,000  Level FlightAware Transoceanic
11:41PM 46.6223 153.6639 229° Southwest 439 505 40,000  Level FlightAware Transoceanic
11:42PM 46.5415 153.5303 229° Southwest 439 505 40,000  Level FlightAware Transoceanic
11:43PM 46.4605 153.3971 228° Southwest 439 505 40,000  Level FlightAware Transoceanic
11:44PM 46.3794 153.2644 228° Southwest 439 505 40,000  Level FlightAware Transoceanic
11:45PM 46.2981 153.1320 228° Southwest 439 505 40,000  Level FlightAware Transoceanic
11:46PM 46.2146 152.9967 228° Southwest  Level FlightAware Approximate
11:47PM 46.2125 152.9934 228° Southwest  Level FlightAware Approximate
11:48PM 46.1284 152.8592 228° Southwest  Level FlightAware Approximate
11:49PM 46.0441 152.7254 228° Southwest  Level FlightAware Approximate
11:50PM 45.9596 152.5920 228° Southwest  Level FlightAware Approximate
11:51PM 45.8750 152.4590 228° Southwest  Level FlightAware Approximate
11:52PM 45.7902 152.3264 228° Southwest  Level FlightAware Approximate
11:53PM 45.7053 152.1942 227° Southwest  Level FlightAware Approximate
11:54PM 45.6202 152.0624 227° Southwest  Level FlightAware Approximate
11:55PM 45.5350 151.9310 227° Southwest  Level FlightAware Approximate
11:56PM 45.4496 151.8001 227° Southwest  Level FlightAware Approximate
11:57PM 45.3640 151.6695 227° Southwest  Level FlightAware Approximate
11:58PM 45.2784 151.5393 227° Southwest  Level FlightAware Approximate
11:59PM 45.1925 151.4095 227° Southwest  Level FlightAware Approximate
12:00AM 45.1065 151.2801 227° Southwest  Level FlightAware Approximate
12:01AM 45.0204 151.1510 227° Southwest  Level FlightAware Approximate
12:02AM 44.9342 151.0224 227° Southwest  Level FlightAware Approximate
12:03AM 44.8478 150.8942 226° Southwest  Level FlightAware Approximate
12:04AM 44.7612 150.7663 226° Southwest  Level FlightAware Approximate
12:05AM 44.6745 150.6388 226° Southwest  Level FlightAware Approximate
12:06AM 44.5877 150.5117 226° Southwest  Level FlightAware Approximate
12:07AM 44.5007 150.3850 226° Southwest  Level FlightAware Approximate
12:08AM 44.4136 150.2587 226° Southwest  Level FlightAware Approximate
12:09AM 44.3263 150.1327 226° Southwest  Level FlightAware Approximate
12:10AM 44.2389 150.0071 226° Southwest  Level FlightAware Approximate
12:11AM 44.1510 149.8814 226° Southwest  Level FlightAware Approximate
12:12AM 44.0629 149.7560 226° Southwest  Level FlightAware Approximate
12:13AM 43.9747 149.6309 226° Southwest  Level FlightAware Approximate
12:14AM 43.8864 149.5063 226° Southwest  Level FlightAware Approximate
12:15AM 43.7979 149.3820 225° Southwest  Level FlightAware Approximate
12:16AM 43.7093 149.2581 225° Southwest  Level FlightAware Approximate
12:17AM 43.6206 149.1345 225° Southwest  Level FlightAware Approximate
12:18AM 43.5317 149.0114 225° Southwest  Level FlightAware Approximate
12:19AM 43.4427 148.8885 225° Southwest  Level FlightAware Approximate
12:20AM 43.3536 148.7661 225° Southwest  Level FlightAware Approximate
12:21AM 43.2643 148.6440 225° Southwest  Level FlightAware Approximate
12:22AM 43.1749 148.5222 225° Southwest  Level FlightAware Approximate
12:23AM 43.0854 148.4008 225° Southwest  Level FlightAware Approximate
12:24AM 42.9958 148.2798 225° Southwest  Level FlightAware Approximate
12:25AM 42.9060 148.1591 225° Southwest  Level FlightAware Approximate
12:26AM 42.8161 148.0388 224° Southwest  Level FlightAware Approximate
12:27AM 42.7261 147.9188 224° Southwest  Level FlightAware Approximate
12:28AM 42.6359 147.7992 224° Southwest  Level FlightAware Approximate
12:29AM 42.5457 147.6799 224° Southwest  Level FlightAware Approximate
12:30AM 42.4553 147.5610 224° Southwest  Level FlightAware Approximate
12:31AM 42.3649 147.4421 225° Southwest  Level FlightAware Approximate
12:32AM 42.2752 147.3226 225° Southwest  Level FlightAware Approximate
12:33AM 42.1853 147.2034 225° Southwest  Level FlightAware Approximate
12:34AM 42.0954 147.0846 224° Southwest  Level FlightAware Approximate
12:35AM 42.0053 146.9661 224° Southwest  Level FlightAware Approximate
12:36AM 41.9150 146.8479 223° Southwest  Level FlightAware Approximate
12:37AM 41.8233 146.7321 223° Southwest  Level FlightAware Approximate
12:38AM 41.7314 146.6166 223° Southwest  Level FlightAware Approximate
12:39AM 41.6394 146.5014 223° Southwest  Level FlightAware Approximate
12:40AM 41.5473 146.3865 223° Southwest  Level FlightAware Approximate
12:41AM 41.4551 146.2720 223° Southwest  Level FlightAware Approximate
12:42AM 41.3628 146.1578 223° Southwest  Level FlightAware Approximate
12:43AM 41.2704 146.0439 223° Southwest  Level FlightAware Approximate
12:44AM 41.1778 145.9303 223° Southwest  Level FlightAware Approximate
12:45AM 41.0864 145.8153 224° Southwest  Level FlightAware Approximate
12:46AM 40.9950 145.7004 224° Southwest  Level FlightAware Approximate
12:47AM 40.9035 145.5858 223° Southwest  Level FlightAware Approximate
12:48AM 40.8120 145.4715 223° Southwest  Level FlightAware Approximate
12:49AM 40.7202 145.3575 223° Southwest  Level FlightAware Approximate
12:50AM 40.6284 145.2438 223° Southwest  Level FlightAware Approximate
12:51AM 40.5365 145.1304 223° Southwest  Level FlightAware Approximate
12:52AM 40.4445 145.0174 223° Southwest  Level FlightAware Approximate
12:53AM 40.3519 144.9053 223° Southwest  Level FlightAware Approximate
12:54AM 40.2590 144.7938 223° Southwest  Level FlightAware Approximate
12:55AM 40.1660 144.6826 222° Southwest  Level FlightAware Approximate
12:56AM 40.0729 144.5717 222° Southwest  Level FlightAware Approximate
12:57AM 39.9796 144.4611 222° Southwest  Level FlightAware Approximate
12:57AM 39.6970 144.1390 222° Southwest 445 512 40,000  Level FlightAware
12:58AM 39.8863 144.3508 222° Southwest  Level FlightAware Approximate
12:58AM 39.6480 144.0810 222° Southwest 445 512 40,000  Level FlightAware
12:58AM 39.5920 144.0160 222° Southwest 440 506 40,000  Level FlightAware
12:59AM 39.5380 143.9530 222° Southwest 440 506 40,000  Level FlightAware
01:00AM 39.4830 143.8890 222° Southwest 442 509 40,000  Level FlightAware
01:00AM 39.4290 143.8260 222° Southwest 449 517 40,000  Level FlightAware
01:01AM 39.3670 143.7550 222° Southwest 449 517 40,000  Level FlightAware
01:01AM 39.3140 143.6940 222° Southwest 449 517 40,000  Level FlightAware
01:02AM 39.2580 143.6300 222° Southwest 449 517 40,000  Level FlightAware
01:03AM 39.1960 143.5580 222° Southwest 448 516 40,000  Level FlightAware
01:03AM 39.1500 143.5050 222° Southwest 441 507 40,000  Level FlightAware
01:04AM 39.0880 143.4350 221° Southwest 449 517 40,000  Level FlightAware
01:04AM 39.0420 143.3820 222° Southwest 449 517 40,000  Level FlightAware
01:05AM 38.9870 143.3190 222° Southwest 450 518 40,000  Level FlightAware
01:05AM 38.9360 143.2630 221° Southwest 450 518 40,000  Level FlightAware
01:06AM 38.8720 143.2250 205° Southwest 486 559 40,000  Level FlightAware
01:07AM 38.7910 143.2110 188° South 498 573 40,000  Level FlightAware
01:07AM 38.7110 143.2010 186° South 498 573 40,000  Level FlightAware
01:08AM 38.6310 143.1890 187° South 500 575 40,000  Level FlightAware
01:08AM 38.5490 143.1780 186° South 501 577 40,000  Level FlightAware
01:09AM 38.4690 143.1670 186° South 501 577 40,000  Level FlightAware
01:09AM 38.3890 143.1560 186° South 498 573 40,000  Level FlightAware
01:10AM 38.3100 143.1360 191° South 487 560 40,000  Level FlightAware
01:11AM 38.2370 143.1030 200° South 480 552 40,000  Level FlightAware
01:11AM 38.1670 143.0700 200° South 482 555 40,000  Level FlightAware
01:12AM 38.0950 143.0360 200° South 482 555 40,000  Level FlightAware
01:12AM 38.0180 143.0000 200° South 481 554 40,000  Level FlightAware
01:13AM 37.9510 142.9690 200° South 480 552 40,000  Level FlightAware
01:14AM 37.8750 142.9340 200° South 479 551 40,000  Level FlightAware
01:14AM 37.8020 142.8990 201° Southwest 480 552 40,000  Level FlightAware
01:15AM 37.7280 142.8650 200° South 475 547 40,000  Level FlightAware
01:15AM 37.6550 142.8310 200° South 476 548 40,000  Level FlightAware
01:16AM 37.5830 142.7980 200° South 477 549 40,000  Level FlightAware
01:16AM 37.5110 142.7650 200° South 475 547 40,000  Level FlightAware
01:17AM 37.4300 142.7270 200° South 475 547 40,000  Level FlightAware
01:18AM 37.3540 142.6940 199° South 476 548 40,000  Level FlightAware
01:18AM 37.2740 142.6600 199° South 473 544 40,000  Level FlightAware
01:19AM 37.2000 142.6280 199° South 471 542 40,000  Level FlightAware
01:19AM 37.1390 142.6010 199° South 462 532 40,000  Level FlightAware
01:20AM 37.0690 142.5710 199° South 464 534 40,000  Level FlightAware
01:21AM 36.9850 142.5320 200° South 469 540 40,000  Level FlightAware
01:21AM 36.9260 142.5000 203° Southwest 458 527 40,000  Level FlightAware
01:22AM 36.8560 142.4600 205° Southwest 459 528 40,000  Level FlightAware
01:22AM 36.7890 142.4220 204° Southwest 460 529 40,000  Level FlightAware
01:23AM 36.7090 142.3760 205° Southwest 458 527 40,000 -300 Level FlightAware
01:24AM 36.6500 142.3430 204° Southwest 462 532 39,700 -1,500 Descending FlightAware
01:24AM 36.5820 142.3060 204° Southwest 457 526 38,400 -2,460 Descending FlightAware
01:25AM 36.5130 142.2690 203° Southwest 459 528 36,900 -2,760 Descending FlightAware
01:25AM 36.4320 142.2260 203° Southwest 474 545 35,000 -2,940 Descending FlightAware
01:26AM 36.3730 142.1940 204° Southwest 471 542 33,500 -3,060 Descending FlightAware
01:26AM 36.3080 142.1590 203° Southwest 475 547 31,700 -3,360 Descending FlightAware
01:27AM 36.2190 142.1110 204° Southwest 477 549 29,300 -3,120 Descending FlightAware
01:28AM 36.1560 142.0780 203° Southwest 477 549 28,100 -2,520 Descending FlightAware
01:28AM 36.0850 142.0400 203° Southwest 474 545 26,600 -2,400 Descending FlightAware
01:29AM 36.0190 142.0040 204° Southwest 458 527 25,300 -2,400 Descending FlightAware
01:29AM 35.9470 141.9660 203° Southwest 457 526 23,800 -2,520 Descending FlightAware
01:30AM 35.8840 141.9330 203° Southwest 442 509 22,400 -2,580 Descending FlightAware
01:31AM 35.8030 141.8900 203° Southwest 432 497 20,600 -2,520 Descending FlightAware
01:31AM 35.7710 141.8640 213° Southwest 422 486 19,900 -2,040 Descending FlightAware
01:31AM 35.7410 141.8170 232° Southwest 411 473 19,100 -2,040 Descending FlightAware
01:32AM 35.7300 141.7620 256° West 398 458 18,200 -2,400 Descending FlightAware
01:32AM 35.7390 141.6830 278° West 391 450 16,700 -1,860 Descending FlightAware
01:33AM 35.7490 141.6080 279° West 391 450 16,000 -780 Descending FlightAware
01:34AM 35.7600 141.5320 280° West 383 441 15,700 -720 Descending FlightAware
01:34AM 35.7700 141.4620 280° West 381 438 15,100 -1,320 Descending FlightAware
01:35AM 35.7810 141.3830 280° West 377 434 14,200 -1,980 Descending FlightAware
01:36AM 35.7940 141.2850 279° West 375 432 12,700 -2,160 Descending FlightAware
01:36AM 35.8040 141.2110 279° West 370 426 11,600 -1,200 Descending FlightAware
01:37AM 35.8130 141.1400 279° West 338 389 11,300 -540 Descending FlightAware
01:37AM 35.8210 141.0760 279° West 309 356 11,000 -540 Descending FlightAware
01:38AM 35.8290 141.0180 280° West 285 328 10,700 -540 Descending FlightAware
01:38AM 35.8360 140.9640 279° West 266 306 10,400 -780 Descending FlightAware
01:39AM 35.8400 140.9340 279° West 269 310 10,000 -1,380 Descending FlightAware
01:39AM 35.8450 140.9040 282° West 275 316 9,500 -1,200 Descending FlightAware
01:39AM 35.8500 140.8890 292° West 272 313 9,400 -600 Descending FlightAware
01:40AM 35.8640 140.8640 305° West 259 298 9,200 -600 Descending FlightAware
01:40AM 35.8780 140.8400 306° West 252 290 9,000 -900 Descending FlightAware
01:40AM 35.8880 140.8230 306° West 249 287 8,700 -1,080 Descending FlightAware
01:41AM 35.9030 140.8000 309° West 249 287 8,400 -1,080 Descending FlightAware
01:41AM 35.9160 140.7780 306° West 251 289 8,000 -1,320 Descending FlightAware
01:41AM 35.9280 140.7520 300° West 250 288 7,600 -1,080 Descending FlightAware
01:41AM 35.9350 140.7240 287° West 248 285 7,300 -480 Descending FlightAware
01:42AM 35.9390 140.7010 282° West 249 287 7,300  Level FlightAware
01:42AM 35.9410 140.6880 281° West 245 282 7,300  Level FlightAware
01:42AM 35.9430 140.6560 274° West 245 282 7,300  Level FlightAware
01:43AM 35.9450 140.6270 275° West 246 283 7,300  Level FlightAware
01:43AM 35.9470 140.6050 276° West 247 284 7,300  Level FlightAware
01:43AM 35.9480 140.5770 273° West 236 272 7,300 -480 Level FlightAware
01:44AM 35.9500 140.5510 275° West 228 262 7,000 -840 Descending FlightAware
01:44AM 35.9510 140.5310 274° West 224 258 6,800 -840 Descending FlightAware
01:44AM 35.9530 140.5060 276° West 223 257 6,500 -1,080 Descending FlightAware
01:45AM 35.9540 140.4800 273° West 224 258 6,100 -1,020 Descending FlightAware
01:45AM 35.9550 140.4590 273° West 224 258 5,900 -1,080 Descending FlightAware
01:45AM 35.9570 140.4360 276° West 224 258 5,500 -1,080 Descending FlightAware
01:45AM 35.9580 140.4080 273° West 224 258 5,200 -900 Descending FlightAware
01:46AM 35.9600 140.3820 275° West 222 255 4,900 -540 Descending FlightAware
01:46AM 35.9560 140.3480 262° West 220 253 4,700 -480 Descending FlightAware
01:46AM 35.9530 140.3390 248° West 216 249 4,600 -2,100 Descending FlightAware
01:47AM 35.9450 140.3200 243° Southwest 215 247 4,000 -2,220 Descending FlightAware
01:47AM 35.9380 140.3020 244° Southwest 215 247 3,400 -1,560 Descending FlightAware
01:47AM 35.9290 140.2880 232° Southwest 216 249 3,100 -480 Descending FlightAware
01:48AM 35.9080 140.2720 212° Southwest 188 216 3,100 -180 Level FlightAware
01:48AM 35.8920 140.2830 151° Southeast 171 197 3,000 -600 Descending FlightAware
01:48AM 35.8780 140.2940 148° Southeast 168 193 2,700 -960 Descending FlightAware
01:49AM 35.8690 140.3000 152° Southeast 166 191 2,500 -900 Descending FlightAware
01:49AM 35.8540 140.3100 152° Southeast 169 194 2,200 -840 Descending FlightAware
01:49AM 35.8400 140.3210 148° Southeast 169 194 1,900 -960 Descending FlightAware
01:50AM 35.8320 140.3270 149° Southeast 165 190 1,700 -840 Descending FlightAware
01:50AM 35.8170 140.3380 149° Southeast 150 173 1,400 -720 Descending FlightAware
01:50AM 35.8110 140.3420 152° Southeast 148 170 1,300 -780 Descending FlightAware
01:50AM 35.7980 140.3510 151° Southeast 147 169 1,000 -840 Descending FlightAware
01:51AM 35.7840 140.3610 150° Southeast 145 167 700 -360 Descending FlightAware
01:51AM 35.7680 140.3730 149° Southeast 146 168 700  Level FlightAware